Time;durP1;ratioP1;P1;durP2;ratioP2;P2;SDS_P1;SDS_P2;PMS_P1;PMS_P2;Temp;Humidity;BMP_temperature;BMP_pressure;BME280_temperature;BME280_humidity;BME280_pressure;Samples;Min_cycle;Max_cycle;Signal;HPM_P1;HPM_P2
2024/01/03 00:02:11;;;;;;;15.77;3.10;;;10.10;99.90;;;;;;5032219;28;20132;-67
2024/01/03 00:04:38;;;;;;;17.05;2.97;;;10.10;99.90;;;;;;5033573;28;20037;-67
2024/01/03 00:07:05;;;;;;;19.02;3.63;;;10.10;99.90;;;;;;5033034;28;20045;-67
2024/01/03 00:09:32;;;;;;;15.70;2.80;;;10.00;99.90;;;;;;5032224;28;20073;-67
2024/01/03 00:12:00;;;;;;;16.48;3.47;;;10.00;99.90;;;;;;5033294;28;20084;-67
2024/01/03 00:14:29;;;;;;;14.75;2.97;;;10.00;99.90;;;;;;5033050;28;20417;-67
2024/01/03 00:16:56;;;;;;;20.63;3.20;;;10.00;99.90;;;;;;5033367;28;20483;-67
2024/01/03 00:19:23;;;;;;;17.67;3.22;;;10.00;99.90;;;;;;5033495;28;20382;-70
2024/01/03 00:21:50;;;;;;;17.58;3.17;;;10.00;99.90;;;;;;5033604;28;20045;-70
2024/01/03 00:24:17;;;;;;;17.77;2.97;;;9.90;99.90;;;;;;5033142;28;20044;-69
2024/01/03 00:26:44;;;;;;;21.33;3.50;;;9.90;99.90;;;;;;5033296;28;20038;-69
2024/01/03 00:29:11;;;;;;;20.42;2.90;;;9.90;99.90;;;;;;5032937;28;20038;-69
2024/01/03 00:31:38;;;;;;;19.17;3.67;;;9.80;99.90;;;;;;5015742;28;20051;-69
2024/01/03 00:34:05;;;;;;;19.80;3.78;;;9.80;99.90;;;;;;5031517;28;20044;-69
2024/01/03 00:36:32;;;;;;;18.15;3.60;;;9.80;99.90;;;;;;5031504;28;20461;-69
2024/01/03 00:38:59;;;;;;;16.63;4.22;;;9.80;99.90;;;;;;5031486;28;20038;-69
2024/01/03 00:41:25;;;;;;;17.45;3.38;;;9.80;99.90;;;;;;5032904;28;20426;-70
2024/01/03 00:43:52;;;;;;;17.10;2.85;;;9.80;99.90;;;;;;5031748;28;20042;-70
2024/01/03 00:46:19;;;;;;;18.33;4.10;;;9.80;99.90;;;;;;5033338;28;20045;-70
2024/01/03 00:48:47;;;;;;;22.90;3.65;;;9.70;99.90;;;;;;5015591;28;20049;-70
2024/01/03 00:51:14;;;;;;;20.25;3.95;;;9.70;99.90;;;;;;5033071;28;20095;-70
2024/01/03 00:53:42;;;;;;;19.92;3.42;;;9.80;99.90;;;;;;5032746;28;20038;-70
2024/01/03 00:56:08;;;;;;;18.90;3.40;;;9.70;99.90;;;;;;5033131;28;20061;-70
2024/01/03 00:58:35;;;;;;;19.30;3.38;;;9.70;99.90;;;;;;5031672;28;20501;-70
2024/01/03 01:01:02;;;;;;;17.60;3.33;;;9.70;99.90;;;;;;5031532;28;20100;-70
2024/01/03 01:03:29;;;;;;;13.88;3.10;;;9.70;99.90;;;;;;5031409;28;20045;-71
2024/01/03 01:05:56;;;;;;;21.05;3.72;;;9.70;99.90;;;;;;5032734;28;20045;-72
2024/01/03 01:08:23;;;;;;;19.48;3.75;;;9.70;99.90;;;;;;5033032;28;20042;-71
2024/01/03 01:10:50;;;;;;;19.95;3.65;;;9.70;99.90;;;;;;5032604;28;20552;-71
2024/01/03 01:13:17;;;;;;;19.92;3.60;;;9.70;99.90;;;;;;5032643;28;20056;-71
2024/01/03 01:15:44;;;;;;;19.77;3.70;;;9.70;99.90;;;;;;5032589;28;20053;-71
2024/01/03 01:18:11;;;;;;;22.45;3.03;;;9.70;99.90;;;;;;5034025;28;20049;-71
2024/01/03 01:20:38;;;;;;;18.33;3.38;;;9.70;99.90;;;;;;5036664;28;20037;-70
2024/01/03 01:23:05;;;;;;;19.02;3.20;;;9.70;99.90;;;;;;5036384;28;20049;-71
2024/01/03 01:25:32;;;;;;;23.13;4.35;;;9.70;99.90;;;;;;5035009;28;20542;-71
2024/01/03 01:27:59;;;;;;;20.58;4.40;;;9.70;99.90;;;;;;5036594;28;20048;-71
2024/01/03 01:30:26;;;;;;;18.73;3.67;;;9.70;99.90;;;;;;5034783;28;20611;-62
2024/01/03 01:32:53;;;;;;;21.13;3.95;;;9.70;99.90;;;;;;5035153;28;20064;-62
2024/01/03 01:35:20;;;;;;;22.02;4.88;;;9.70;99.90;;;;;;5036043;28;20467;-62
2024/01/03 01:37:48;;;;;;;25.67;4.40;;;9.70;99.90;;;;;;5035941;28;20458;-62
2024/01/03 01:40:15;;;;;;;27.40;4.82;;;9.70;99.90;;;;;;5036091;28;20414;-61
2024/01/03 01:42:42;;;;;;;20.33;3.70;;;9.70;99.90;;;;;;5036027;28;20053;-62
2024/01/03 01:45:09;;;;;;;21.77;4.63;;;9.70;99.90;;;;;;5034645;28;20068;-62
2024/01/03 01:47:36;;;;;;;25.73;3.97;;;9.70;99.90;;;;;;5035964;28;20038;-62
2024/01/03 01:50:03;;;;;;;23.92;5.00;;;9.70;99.90;;;;;;5035842;28;20141;-62
2024/01/03 01:52:30;;;;;;;20.70;4.22;;;9.60;99.90;;;;;;5035922;28;20038;-62
2024/01/03 01:54:57;;;;;;;25.13;4.75;;;9.70;99.90;;;;;;5035838;28;20073;-62
2024/01/03 01:57:23;;;;;;;23.52;3.83;;;9.60;99.90;;;;;;5034468;28;20048;-62
2024/01/03 01:59:50;;;;;;;24.48;4.68;;;9.60;99.90;;;;;;5034543;28;20128;-63
2024/01/03 02:02:17;;;;;;;22.20;4.03;;;9.60;99.90;;;;;;5034241;28;20038;-68
2024/01/03 02:04:44;;;;;;;22.20;4.10;;;9.50;99.90;;;;;;5034240;28;20471;-68
2024/01/03 02:07:11;;;;;;;22.42;4.38;;;9.50;99.90;;;;;;5035317;28;20044;-68
2024/01/03 02:09:38;;;;;;;24.73;4.57;;;9.50;99.90;;;;;;5035311;28;20076;-68
2024/01/03 02:12:05;;;;;;;27.02;4.15;;;9.50;99.90;;;;;;5017408;28;20098;-68
2024/01/03 02:14:32;;;;;;;20.20;3.80;;;9.50;99.90;;;;;;5035278;28;20092;-68
2024/01/03 02:16:59;;;;;;;20.75;4.15;;;9.50;99.90;;;;;;5033752;28;20140;-68
2024/01/03 02:19:26;;;;;;;22.77;4.22;;;9.40;99.90;;;;;;5035312;28;20533;-68
2024/01/03 02:21:53;;;;;;;20.25;4.25;;;9.40;99.90;;;;;;5035309;28;20045;-68
2024/01/03 02:24:20;;;;;;;19.60;3.67;;;9.40;99.90;;;;;;5035282;28;20046;-67
2024/01/03 02:26:46;;;;;;;19.38;3.95;;;9.40;99.90;;;;;;5035144;28;20053;-67
2024/01/03 02:29:13;;;;;;;20.58;4.32;;;9.40;99.90;;;;;;5034903;28;20542;-68
2024/01/03 02:31:40;;;;;;;22.77;4.15;;;9.40;99.90;;;;;;5035075;28;20474;-68
2024/01/03 02:34:07;;;;;;;19.45;3.50;;;9.40;99.90;;;;;;5033747;28;20072;-62
2024/01/03 02:36:34;;;;;;;20.42;4.22;;;9.40;99.90;;;;;;5034777;28;20044;-61
2024/01/03 02:39:01;;;;;;;17.90;4.32;;;9.40;99.90;;;;;;5034968;28;20041;-62
2024/01/03 02:41:28;;;;;;;21.33;3.70;;;9.40;99.90;;;;;;5034904;28;20049;-62
2024/01/03 02:43:54;;;;;;;21.00;3.67;;;9.40;99.90;;;;;;5033022;28;20048;-62
2024/01/03 02:46:21;;;;;;;22.95;4.13;;;9.40;99.90;;;;;;5034263;28;20048;-62
2024/01/03 02:48:48;;;;;;;24.35;3.85;;;9.40;99.90;;;;;;5034245;28;20048;-62
2024/01/03 02:51:16;;;;;;;20.08;4.03;;;9.40;99.90;;;;;;5034511;28;20045;-62
2024/01/03 02:53:42;;;;;;;21.38;3.95;;;9.40;99.90;;;;;;5034674;28;20049;-62
2024/01/03 02:56:09;;;;;;;22.17;3.97;;;9.40;99.90;;;;;;5034589;28;20091;-62
2024/01/03 02:58:36;;;;;;;16.55;3.20;;;9.40;99.90;;;;;;5034532;28;20034;-62
2024/01/03 03:01:03;;;;;;;21.75;4.80;;;9.40;99.90;;;;;;5034624;28;20053;-62
2024/01/03 03:03:29;;;;;;;21.23;3.60;;;9.50;99.90;;;;;;5034244;28;20351;-62
2024/01/03 03:05:56;;;;;;;20.15;3.30;;;9.40;99.90;;;;;;5034396;28;20041;-62
2024/01/03 03:08:23;;;;;;;18.35;3.35;;;9.40;99.90;;;;;;5034489;28;20042;-62
2024/01/03 03:10:50;;;;;;;21.02;3.67;;;9.40;99.90;;;;;;5034507;28;20042;-62
2024/01/03 03:13:17;;;;;;;16.50;3.25;;;9.40;99.90;;;;;;5034129;28;20065;-62
2024/01/03 03:15:44;;;;;;;17.83;3.58;;;9.40;99.90;;;;;;5034022;28;20128;-62
2024/01/03 03:18:11;;;;;;;15.00;2.88;;;9.40;99.90;;;;;;5034427;28;20045;-62
2024/01/03 03:20:38;;;;;;;17.38;2.85;;;9.40;99.90;;;;;;5034031;28;20041;-61
2024/01/03 03:23:05;;;;;;;17.25;3.00;;;9.40;99.90;;;;;;5034180;28;20371;-62
2024/01/03 03:25:32;;;;;;;13.85;2.70;;;9.40;99.90;;;;;;5032462;28;20045;-62
2024/01/03 03:27:59;;;;;;;18.50;3.28;;;9.40;99.90;;;;;;5034278;28;20042;-62
2024/01/03 03:30:26;;;;;;;15.10;2.90;;;9.40;99.90;;;;;;5033637;28;20410;-62
2024/01/03 03:32:52;;;;;;;17.45;2.70;;;9.40;99.90;;;;;;5034124;28;20490;-62
2024/01/03 03:35:19;;;;;;;16.73;2.28;;;9.40;99.90;;;;;;5033672;28;20041;-62
2024/01/03 03:37:46;;;;;;;15.18;2.53;;;9.40;99.90;;;;;;5033913;28;20060;-62
2024/01/03 03:40:13;;;;;;;9.07;2.00;;;9.40;99.90;;;;;;5033592;28;20467;-62
2024/01/03 03:42:40;;;;;;;16.00;2.47;;;9.40;99.90;;;;;;5033540;28;20049;-62
2024/01/03 03:45:07;;;;;;;9.30;2.33;;;9.50;99.90;;;;;;5032598;28;20049;-62
2024/01/03 03:47:33;;;;;;;14.93;2.20;;;9.50;99.90;;;;;;5033735;28;20471;-61
2024/01/03 03:50:00;;;;;;;13.20;2.72;;;9.50;99.90;;;;;;5033614;28;20045;-62
2024/01/03 03:52:27;;;;;;;12.38;2.17;;;9.50;99.90;;;;;;5033731;28;20079;-61
2024/01/03 03:54:54;;;;;;;13.70;2.42;;;9.50;99.90;;;;;;5033533;28;20486;-62
2024/01/03 03:57:21;;;;;;;9.82;1.92;;;9.50;99.90;;;;;;5033680;28;20076;-62
2024/01/03 03:59:48;;;;;;;16.90;2.67;;;9.40;99.90;;;;;;5033536;28;20445;-62
2024/01/03 04:02:14;;;;;;;14.18;2.50;;;9.50;99.90;;;;;;5033832;28;20069;-62
2024/01/03 04:04:41;;;;;;;15.80;2.30;;;9.50;99.90;;;;;;5033149;28;20069;-62
2024/01/03 04:07:08;;;;;;;7.43;2.08;;;9.50;99.90;;;;;;5033432;28;20100;-62
2024/01/03 04:09:35;;;;;;;13.68;2.13;;;9.50;99.90;;;;;;5033156;28;20529;-62
2024/01/03 04:12:02;;;;;;;12.60;2.45;;;9.50;99.90;;;;;;5033653;28;20483;-62
2024/01/03 04:14:29;;;;;;;14.18;2.22;;;9.50;99.90;;;;;;5033134;28;20103;-62
2024/01/03 04:16:55;;;;;;;14.40;2.47;;;9.60;99.90;;;;;;5033257;28;20375;-62
2024/01/03 04:19:23;;;;;;;14.48;2.30;;;9.70;99.90;;;;;;5033343;28;20037;-62
2024/01/03 04:21:50;;;;;;;10.40;2.03;;;9.70;99.90;;;;;;5033424;28;20064;-62
2024/01/03 04:24:17;;;;;;;15.68;2.35;;;9.70;99.90;;;;;;5033238;28;20050;-62
2024/01/03 04:26:43;;;;;;;14.23;2.05;;;9.70;99.90;;;;;;5033426;28;20116;-62
2024/01/03 04:29:10;;;;;;;13.10;2.20;;;9.70;99.90;;;;;;5033392;28;20065;-62
2024/01/03 04:31:37;;;;;;;15.27;2.72;;;9.80;99.90;;;;;;5033309;28;20041;-62
2024/01/03 04:34:04;;;;;;;10.68;2.10;;;9.80;99.90;;;;;;5032041;28;20061;-62
2024/01/03 04:36:31;;;;;;;17.90;3.00;;;9.80;99.90;;;;;;5033131;28;20144;-62
2024/01/03 04:38:57;;;;;;;11.15;2.55;;;9.90;99.90;;;;;;5033027;28;20091;-62
2024/01/03 04:41:24;;;;;;;9.45;2.17;;;9.90;99.90;;;;;;5031821;28;20046;-62
2024/01/03 04:43:51;;;;;;;16.10;2.92;;;9.80;99.90;;;;;;5032073;28;20441;-62
2024/01/03 04:46:18;;;;;;;7.55;1.88;;;9.90;99.90;;;;;;5033316;28;20038;-62
2024/01/03 04:48:45;;;;;;;9.98;1.80;;;9.80;99.90;;;;;;5032980;28;20041;-62
2024/01/03 04:51:12;;;;;;;6.55;1.70;;;9.80;99.90;;;;;;5033379;28;20064;-62
2024/01/03 04:53:41;;;;;;;9.02;1.83;;;9.90;99.90;;;;;;5036535;28;20136;-62
2024/01/03 04:56:08;;;;;;;11.13;1.90;;;9.90;99.90;;;;;;5036989;28;20099;-62
2024/01/03 04:58:35;;;;;;;9.75;2.13;;;9.90;99.90;;;;;;5036884;28;20597;-62
2024/01/03 05:01:01;;;;;;;8.68;1.90;;;9.90;99.90;;;;;;5036874;28;20103;-62
2024/01/03 05:03:28;;;;;;;14.43;2.17;;;9.90;99.90;;;;;;5036697;28;20056;-62
2024/01/03 05:05:55;;;;;;;9.93;2.05;;;9.90;99.90;;;;;;5036723;28;20041;-62
2024/01/03 05:08:22;;;;;;;7.30;1.70;;;9.90;99.90;;;;;;5035192;28;20050;-62
2024/01/03 05:10:49;;;;;;;10.30;1.75;;;9.90;99.90;;;;;;5036664;28;20111;-62
2024/01/03 05:13:16;;;;;;;10.15;2.17;;;9.90;99.90;;;;;;5036447;28;20037;-62
2024/01/03 05:15:42;;;;;;;7.95;1.88;;;9.90;99.90;;;;;;5036610;28;20049;-62
2024/01/03 05:18:09;;;;;;;10.45;1.83;;;9.90;99.90;;;;;;5036203;28;20033;-62
2024/01/03 05:20:37;;;;;;;11.65;2.30;;;9.90;99.90;;;;;;5036460;28;20041;-62
2024/01/03 05:23:03;;;;;;;8.93;1.95;;;9.90;99.90;;;;;;5018443;28;20103;-62
2024/01/03 05:25:30;;;;;;;10.93;1.85;;;9.90;99.90;;;;;;5034879;28;20128;-62
2024/01/03 05:27:59;;;;;;;9.18;2.38;;;10.00;99.90;;;;;;5036293;28;20045;-62
2024/01/03 05:30:32;;;;;;;12.35;2.20;;;9.90;99.90;;;;;;5019191;28;20076;-62
2024/01/03 05:32:59;;;;;;;14.50;2.35;;;9.90;99.90;;;;;;5036386;28;20045;-62
2024/01/03 05:35:26;;;;;;;11.57;2.40;;;9.90;99.90;;;;;;5036047;28;20574;-62
2024/01/03 05:37:53;;;;;;;13.00;2.40;;;9.80;99.90;;;;;;5036346;28;20060;-62
2024/01/03 05:40:19;;;;;;;15.13;2.35;;;9.80;99.90;;;;;;5036097;28;20045;-67
2024/01/03 05:42:46;;;;;;;13.02;2.30;;;9.70;99.90;;;;;;5036178;28;20526;-67
2024/01/03 05:45:13;;;;;;;10.57;2.05;;;9.70;99.90;;;;;;5035670;28;20096;-62
2024/01/03 05:47:40;;;;;;;12.23;2.30;;;9.60;99.90;;;;;;5035896;28;20037;-62
2024/01/03 05:50:08;;;;;;;11.45;2.15;;;9.60;99.90;;;;;;5035975;28;20094;-62
2024/01/03 05:52:36;;;;;;;15.07;2.08;;;9.50;99.90;;;;;;5036295;28;20065;-62
2024/01/03 05:55:02;;;;;;;13.98;2.45;;;9.50;99.90;;;;;;5035918;28;20045;-62
2024/01/03 05:57:29;;;;;;;10.50;2.20;;;9.40;99.90;;;;;;5035632;28;20048;-61
2024/01/03 05:59:56;;;;;;;12.73;1.90;;;9.40;99.90;;;;;;5035835;28;20038;-62
2024/01/03 06:02:23;;;;;;;12.07;1.90;;;9.40;99.90;;;;;;5035721;28;20037;-62
2024/01/03 06:04:50;;;;;;;10.82;2.10;;;9.40;99.90;;;;;;5035189;28;20046;-62
2024/01/03 06:07:16;;;;;;;7.82;1.67;;;9.30;99.90;;;;;;5035828;28;20042;-62
2024/01/03 06:09:43;;;;;;;7.97;1.83;;;9.30;99.90;;;;;;5035663;28;20045;-62
2024/01/03 06:12:10;;;;;;;11.15;2.25;;;9.30;99.90;;;;;;5035754;28;20044;-62
2024/01/03 06:14:41;;;;;;;15.30;2.60;;;9.20;99.90;;;;;;5035259;28;20049;-62
2024/01/03 06:17:08;;;;;;;12.32;2.35;;;9.20;99.90;;;;;;5035310;28;20473;-62
2024/01/03 06:19:34;;;;;;;16.38;2.67;;;9.20;99.90;;;;;;5035174;28;20037;-62
2024/01/03 06:22:01;;;;;;;12.32;2.20;;;9.20;99.90;;;;;;5035512;28;20513;-62
2024/01/03 06:24:28;;;;;;;13.75;2.50;;;9.20;99.90;;;;;;5035271;28;20042;-62
2024/01/03 06:26:55;;;;;;;14.82;2.35;;;9.20;99.90;;;;;;5035085;28;20049;-62
2024/01/03 06:29:22;;;;;;;12.52;2.50;;;9.20;99.90;;;;;;5033750;28;20045;-62
2024/01/03 06:31:49;;;;;;;13.85;2.13;;;9.10;99.90;;;;;;5035118;28;20041;-62
2024/01/03 06:34:16;;;;;;;12.10;2.38;;;9.10;99.90;;;;;;5034867;28;20042;-62
2024/01/03 06:36:43;;;;;;;12.10;2.60;;;9.10;99.90;;;;;;5035223;28;20045;-62
2024/01/03 06:39:10;;;;;;;13.05;2.08;;;9.10;99.90;;;;;;5035010;28;20466;-61
2024/01/03 06:41:36;;;;;;;14.88;2.92;;;9.00;99.90;;;;;;5033666;28;20049;-70
2024/01/03 06:44:04;;;;;;;19.27;2.72;;;9.00;99.90;;;;;;5034938;28;20046;-69
2024/01/03 06:46:30;;;;;;;15.05;2.13;;;9.00;99.90;;;;;;5034997;28;20037;-69
2024/01/03 06:49:00;;;;;;;13.90;2.88;;;9.00;99.90;;;;;;5034625;28;20498;-69
2024/01/03 06:51:27;;;;;;;10.65;2.78;;;9.00;99.90;;;;;;5034551;28;20061;-70
2024/01/03 06:53:54;;;;;;;16.92;2.85;;;9.00;99.90;;;;;;5034988;28;20037;-69
2024/01/03 06:56:21;;;;;;;13.98;2.20;;;9.00;99.90;;;;;;5034803;28;20037;-69
2024/01/03 06:58:47;;;;;;;14.40;2.60;;;8.90;99.90;;;;;;5033374;28;20053;-70
2024/01/03 07:01:14;;;;;;;19.67;2.90;;;8.90;99.90;;;;;;5034541;28;20046;-69
2024/01/03 07:03:41;;;;;;;18.80;3.47;;;8.90;99.90;;;;;;5034223;28;20509;-70
2024/01/03 07:06:08;;;;;;;16.17;3.25;;;8.90;99.90;;;;;;5034246;28;20049;-70
2024/01/03 07:08:35;;;;;;;14.77;3.17;;;8.90;99.90;;;;;;5035174;28;20491;-70
2024/01/03 07:11:02;;;;;;;19.08;3.35;;;8.90;99.90;;;;;;5033392;28;20116;-69
2024/01/03 07:13:28;;;;;;;21.83;2.80;;;8.80;99.90;;;;;;5034301;28;20049;-70
2024/01/03 07:15:55;;;;;;;13.70;3.05;;;8.80;99.90;;;;;;5033412;28;20487;-69
2024/01/03 07:18:22;;;;;;;19.45;3.20;;;8.80;99.90;;;;;;5034411;28;20041;-60
2024/01/03 07:20:49;;;;;;;19.27;3.15;;;8.80;99.90;;;;;;5033802;28;20049;-61
2024/01/03 07:23:17;;;;;;;15.73;3.20;;;8.90;99.90;;;;;;5033864;28;20045;-63
2024/01/03 07:25:44;;;;;;;17.17;3.10;;;8.80;99.90;;;;;;5034092;28;20081;-60
2024/01/03 07:28:10;;;;;;;20.67;2.60;;;8.80;99.90;;;;;;5034883;28;20343;-60
2024/01/03 07:30:37;;;;;;;17.65;2.85;;;8.80;99.90;;;;;;5035683;28;20037;-61
2024/01/03 07:33:04;;;;;;;20.67;3.42;;;8.80;99.90;;;;;;5037935;28;20140;-69
2024/01/03 07:35:31;;;;;;;19.40;3.63;;;8.80;99.90;;;;;;5035476;28;20051;-69
2024/01/03 07:37:58;;;;;;;19.05;3.00;;;8.80;99.90;;;;;;5033717;28;20055;-59
2024/01/03 07:40:25;;;;;;;15.65;2.70;;;8.80;99.90;;;;;;5034040;28;20116;-69
2024/01/03 07:42:51;;;;;;;17.55;3.10;;;8.70;99.90;;;;;;5033447;28;20449;-61
2024/01/03 07:45:18;;;;;;;18.20;3.33;;;8.70;99.90;;;;;;5033489;28;20112;-60
2024/01/03 07:47:45;;;;;;;24.52;3.53;;;8.70;99.90;;;;;;5033484;28;20111;-70
2024/01/03 07:50:12;;;;;;;21.23;3.53;;;8.70;99.90;;;;;;5033654;28;20077;-69
2024/01/03 07:52:39;;;;;;;22.20;3.70;;;8.70;99.90;;;;;;5033599;28;20133;-59
2024/01/03 07:55:06;;;;;;;23.30;3.85;;;8.70;99.90;;;;;;5033576;28;20047;-70
2024/01/03 07:57:32;;;;;;;18.67;3.40;;;8.70;99.90;;;;;;5033646;28;20037;-69
2024/01/03 07:59:59;;;;;;;21.35;3.70;;;8.70;99.90;;;;;;5032089;28;20037;-61
2024/01/03 08:02:27;;;;;;;20.08;3.38;;;8.70;99.90;;;;;;5033233;28;20088;-60
2024/01/03 08:04:53;;;;;;;18.98;3.42;;;8.70;99.90;;;;;;5032017;28;20072;-60
2024/01/03 08:07:20;;;;;;;23.23;3.10;;;8.70;99.90;;;;;;5032056;28;20048;-60
2024/01/03 08:09:47;;;;;;;19.85;3.38;;;8.70;99.90;;;;;;5033381;28;20053;-59
2024/01/03 08:12:14;;;;;;;19.70;3.58;;;8.70;99.90;;;;;;5033054;28;20045;-60
2024/01/03 08:14:41;;;;;;;19.42;3.88;;;8.70;99.90;;;;;;5031677;28;20463;-67
2024/01/03 08:17:08;;;;;;;16.10;4.03;;;8.70;99.90;;;;;;5032976;28;20057;-68
2024/01/03 08:19:34;;;;;;;21.17;3.80;;;8.70;99.90;;;;;;5033267;28;20069;-67
2024/01/03 08:22:02;;;;;;;24.42;4.38;;;8.70;99.90;;;;;;5032822;28;20041;-67
2024/01/03 08:24:29;;;;;;;32.60;5.47;;;8.70;99.90;;;;;;5032715;28;20081;-67
2024/01/03 08:26:59;;;;;;;28.77;4.53;;;8.70;99.90;;;;;;5034024;28;20103;-67
2024/01/03 08:29:26;;;;;;;27.38;4.60;;;8.70;99.90;;;;;;5038756;28;20053;-67
2024/01/03 08:31:55;;;;;;;29.90;5.78;;;8.70;99.90;;;;;;5038825;28;20523;-66
2024/01/03 08:34:21;;;;;;;23.42;4.80;;;8.80;99.90;;;;;;5039045;28;20554;-66
2024/01/03 08:36:48;;;;;;;28.63;5.13;;;8.80;99.90;;;;;;5038931;28;20133;-65
2024/01/03 08:39:15;;;;;;;29.77;5.45;;;8.90;99.90;;;;;;5037517;28;20401;-65
2024/01/03 08:41:42;;;;;;;28.13;5.05;;;8.90;99.90;;;;;;5038696;28;20064;-66
2024/01/03 08:44:09;;;;;;;26.83;4.80;;;8.90;99.90;;;;;;5038867;28;20065;-66
2024/01/03 08:46:36;;;;;;;31.33;5.72;;;8.90;99.90;;;;;;5038921;28;20064;-67
2024/01/03 08:49:03;;;;;;;27.15;5.43;;;9.00;99.90;;;;;;5038850;28;20037;-66
2024/01/03 08:51:31;;;;;;;26.20;5.38;;;8.90;99.90;;;;;;5038776;28;20063;-66
2024/01/03 08:53:58;;;;;;;26.45;5.28;;;9.00;99.90;;;;;;5038846;28;20115;-67
2024/01/03 08:56:27;;;;;;;33.30;6.10;;;9.00;99.90;;;;;;5038862;28;20037;-71
2024/01/03 08:58:54;;;;;;;31.65;4.75;;;9.00;99.90;;;;;;5038846;28;20041;-71
2024/01/03 09:01:21;;;;;;;34.05;7.20;;;9.00;99.90;;;;;;5038819;28;20136;-71
2024/01/03 09:03:48;;;;;;;28.67;5.15;;;9.00;99.90;;;;;;5038720;28;20045;-71
2024/01/03 09:06:15;;;;;;;30.23;5.80;;;9.00;99.90;;;;;;5038823;28;20049;-70
2024/01/03 09:08:42;;;;;;;37.45;5.50;;;9.10;99.90;;;;;;5037420;28;20097;-61
2024/01/03 09:11:09;;;;;;;28.27;5.82;;;9.10;99.90;;;;;;5038523;28;20046;-60
2024/01/03 09:13:37;;;;;;;30.77;5.20;;;9.10;99.90;;;;;;5038657;28;20088;-60
2024/01/03 09:16:04;;;;;;;28.83;5.65;;;9.10;99.90;;;;;;5038503;28;20132;-60
2024/01/03 09:18:31;;;;;;;31.88;5.43;;;9.10;99.90;;;;;;5039162;28;20041;-60
2024/01/03 09:20:58;;;;;;;35.50;6.10;;;9.20;99.90;;;;;;5038547;28;20053;-60
2024/01/03 09:23:25;;;;;;;34.50;5.72;;;9.20;99.90;;;;;;5038398;28;20045;-60
2024/01/03 09:25:55;;;;;;;25.30;5.13;;;9.20;99.90;;;;;;5038776;28;20049;-60
2024/01/03 09:28:22;;;;;;;27.60;4.97;;;9.20;99.90;;;;;;5038566;28;20042;-60
2024/01/03 09:30:48;;;;;;;31.10;5.80;;;9.20;99.90;;;;;;5037250;28;20494;-60
2024/01/03 09:33:15;;;;;;;32.78;5.75;;;9.30;99.90;;;;;;5038442;28;20044;-60
2024/01/03 09:35:42;;;;;;;29.52;5.47;;;9.30;99.90;;;;;;5038461;28;20045;-59
2024/01/03 09:38:09;;;;;;;29.85;5.63;;;9.30;99.90;;;;;;5037309;28;20052;-61
2024/01/03 09:40:36;;;;;;;25.85;5.45;;;9.30;99.90;;;;;;5035065;28;20045;-60
2024/01/03 09:43:03;;;;;;;30.08;6.05;;;9.30;99.90;;;;;;5035105;28;20052;-60
2024/01/03 09:45:30;;;;;;;32.28;6.10;;;9.30;99.90;;;;;;5035389;28;20095;-60
2024/01/03 09:47:57;;;;;;;29.65;5.80;;;9.40;99.90;;;;;;5035984;28;20045;-60
2024/01/03 09:50:24;;;;;;;24.10;4.72;;;9.40;99.90;;;;;;5034117;28;20038;-60
2024/01/03 09:52:52;;;;;;;26.80;5.03;;;9.50;99.90;;;;;;5035542;28;20043;-60
2024/01/03 09:55:19;;;;;;;26.15;4.85;;;9.50;99.90;;;;;;5035363;28;20448;-59
2024/01/03 09:57:46;;;;;;;29.67;5.30;;;9.70;99.90;;;;;;5035482;28;20128;-62
2024/01/03 10:00:13;;;;;;;23.00;4.55;;;9.70;99.90;;;;;;5035631;28;20479;-64
2024/01/03 10:02:39;;;;;;;26.30;5.60;;;9.80;99.90;;;;;;5035651;28;20049;-63
2024/01/03 10:05:06;;;;;;;23.98;4.80;;;9.80;99.90;;;;;;5033840;28;20050;-64
2024/01/03 10:07:33;;;;;;;24.15;5.15;;;9.80;99.90;;;;;;5035194;28;20045;-63
2024/01/03 10:10:00;;;;;;;25.25;4.90;;;9.90;99.90;;;;;;5035334;28;20047;-63
2024/01/03 10:12:27;;;;;;;20.73;4.50;;;9.90;99.90;;;;;;5035197;28;20041;-64
2024/01/03 10:14:53;;;;;;;25.80;4.35;;;10.00;99.90;;;;;;5034643;28;20048;-63
2024/01/03 10:17:20;;;;;;;21.13;3.95;;;10.00;99.90;;;;;;5033252;28;20137;-62
2024/01/03 10:19:47;;;;;;;23.13;4.10;;;10.00;99.90;;;;;;5033318;28;20037;-62
2024/01/03 10:22:16;;;;;;;23.67;4.13;;;10.10;99.90;;;;;;5034736;28;20118;-62
2024/01/03 10:24:42;;;;;;;23.95;4.20;;;10.10;99.90;;;;;;5035000;28;20052;-63
2024/01/03 10:27:09;;;;;;;32.22;5.55;;;10.30;99.90;;;;;;5034862;28;20051;-63
2024/01/03 10:29:36;;;;;;;21.60;4.10;;;10.40;99.90;;;;;;5035371;28;20052;-62
2024/01/03 10:32:05;;;;;;;22.85;5.15;;;10.40;99.90;;;;;;5032327;28;20045;-62
2024/01/03 10:34:32;;;;;;;17.33;4.03;;;10.50;99.90;;;;;;5034133;28;20128;-62
2024/01/03 10:36:59;;;;;;;19.20;4.05;;;10.50;99.90;;;;;;5032990;28;20037;-62
2024/01/03 10:39:26;;;;;;;20.30;4.82;;;10.50;99.90;;;;;;5034384;28;20167;-62
2024/01/03 10:41:53;;;;;;;20.25;4.07;;;10.50;99.90;;;;;;5034164;28;20044;-62
2024/01/03 10:44:21;;;;;;;18.77;3.78;;;10.50;99.90;;;;;;5016489;28;20054;-63
2024/01/03 10:46:47;;;;;;;24.25;4.05;;;10.50;99.90;;;;;;5015831;28;20507;-63
2024/01/03 10:49:15;;;;;;;19.05;4.82;;;10.40;99.90;;;;;;5014469;28;20049;-63
2024/01/03 10:51:43;;;;;;;18.77;3.58;;;10.40;99.90;;;;;;5023237;28;20042;-63
2024/01/03 10:54:15;;;;;;;13.80;3.22;;;10.30;99.90;;;;;;5034055;28;20045;-63
2024/01/03 10:56:42;;;;;;;20.27;3.35;;;10.30;99.90;;;;;;5033650;28;20478;-68
2024/01/03 10:59:09;;;;;;;17.48;3.10;;;10.30;99.90;;;;;;5034103;28;20052;-67
2024/01/03 11:01:36;;;;;;;16.60;3.80;;;10.20;99.90;;;;;;5033621;28;20072;-62
2024/01/03 11:04:03;;;;;;;15.98;2.95;;;10.10;99.90;;;;;;5033771;28;20478;-62
2024/01/03 11:06:30;;;;;;;13.52;2.97;;;10.20;99.90;;;;;;5033614;28;20045;-61
2024/01/03 11:08:58;;;;;;;13.55;3.20;;;10.10;99.90;;;;;;5033638;28;20048;-61
2024/01/03 11:11:25;;;;;;;18.13;3.88;;;10.20;99.90;;;;;;5033644;28;20478;-62
2024/01/03 11:13:52;;;;;;;18.23;3.63;;;10.20;99.90;;;;;;5033688;28;20056;-62
2024/01/03 11:16:19;;;;;;;20.73;4.43;;;10.30;99.90;;;;;;5032129;28;20053;-61
2024/01/03 11:18:45;;;;;;;20.65;3.60;;;10.30;99.90;;;;;;5033577;28;20042;-61
2024/01/03 11:21:12;;;;;;;18.73;4.53;;;10.30;99.90;;;;;;5033474;28;20045;-61
2024/01/03 11:23:39;;;;;;;21.17;4.70;;;10.40;99.90;;;;;;5033233;28;20052;-69
2024/01/03 11:26:06;;;;;;;24.63;3.72;;;10.50;99.90;;;;;;5033193;28;20459;-68
2024/01/03 11:28:33;;;;;;;18.65;4.13;;;10.50;99.90;;;;;;5033202;28;20406;-68
2024/01/03 11:30:59;;;;;;;14.13;3.25;;;10.60;99.90;;;;;;5033148;28;20395;-68
2024/01/03 11:33:28;;;;;;;15.43;4.00;;;10.70;99.90;;;;;;5033065;28;20041;-68
2024/01/03 11:35:56;;;;;;;19.25;3.63;;;10.90;99.90;;;;;;5032138;28;20099;-70
2024/01/03 11:38:23;;;;;;;17.88;3.42;;;11.00;99.90;;;;;;5033076;28;20049;-72
2024/01/03 11:40:49;;;;;;;19.77;3.45;;;11.10;99.90;;;;;;5028421;28;20046;-70
2024/01/03 11:43:16;;;;;;;19.83;3.83;;;11.20;99.90;;;;;;5013312;28;20065;-71
2024/01/03 11:45:43;;;;;;;17.45;3.42;;;11.20;99.90;;;;;;5013306;28;20045;-62
2024/01/03 11:48:10;;;;;;;16.85;4.15;;;11.30;99.90;;;;;;5013344;28;20505;-63
2024/01/03 11:50:37;;;;;;;19.55;3.55;;;11.30;99.90;;;;;;5013148;28;20041;-63
2024/01/03 11:53:04;;;;;;;17.33;3.03;;;11.30;99.90;;;;;;5012992;28;20034;-64
2024/01/03 11:55:31;;;;;;;15.95;2.65;;;11.30;99.90;;;;;;5013142;28;20042;-63
2024/01/03 11:57:57;;;;;;;17.08;3.28;;;11.30;99.90;;;;;;5013165;28;20084;-72
2024/01/03 12:00:24;;;;;;;12.73;3.22;;;11.30;99.90;;;;;;5013082;28;20041;-71
2024/01/03 12:02:51;;;;;;;17.75;3.15;;;11.30;99.90;;;;;;5027740;28;20038;-73
2024/01/03 12:05:18;;;;;;;17.08;3.13;;;11.30;99.90;;;;;;5028055;28;20121;-73
2024/01/03 12:07:45;;;;;;;15.60;3.17;;;11.40;99.90;;;;;;5012826;28;20042;-73
2024/01/03 12:10:17;;;;;;;16.23;3.00;;;11.40;99.90;;;;;;5028020;28;20049;-73
2024/01/03 12:12:43;;;;;;;19.95;3.97;;;11.60;99.90;;;;;;5028037;28;20115;-62
2024/01/03 12:15:10;;;;;;;17.08;3.30;;;11.70;99.90;;;;;;5012669;28;20459;-62
2024/01/03 12:17:37;;;;;;;15.63;3.30;;;11.70;99.90;;;;;;5013128;28;20045;-61
2024/01/03 12:20:04;;;;;;;16.42;2.97;;;11.80;99.90;;;;;;5028312;28;20038;-71
2024/01/03 12:22:31;;;;;;;15.18;3.05;;;11.90;99.90;;;;;;5012883;28;20049;-70
2024/01/03 12:24:58;;;;;;;16.63;3.88;;;12.00;99.90;;;;;;5012800;28;20101;-71
2024/01/03 12:27:24;;;;;;;17.20;3.40;;;12.10;99.90;;;;;;5012823;28;20368;-70
2024/01/03 12:29:51;;;;;;;15.48;2.75;;;12.00;99.90;;;;;;5012846;28;20491;-70
2024/01/03 12:32:18;;;;;;;12.73;3.08;;;11.90;99.90;;;;;;5012763;28;20479;-70
2024/01/03 12:34:46;;;;;;;9.82;2.85;;;11.70;99.90;;;;;;5017740;28;20095;-70
2024/01/03 12:37:13;;;;;;;13.85;2.85;;;11.60;99.90;;;;;;5033328;28;20046;-71
2024/01/03 12:39:40;;;;;;;11.10;2.53;;;11.50;99.90;;;;;;5031502;28;20068;-70
2024/01/03 12:42:08;;;;;;;15.75;3.88;;;11.30;99.90;;;;;;5033232;28;20056;-71
2024/01/03 12:44:36;;;;;;;15.20;3.60;;;11.10;99.90;;;;;;5031703;28;20469;-72